Overview Statistics Trail Chart Weather Telemetry Raw packets
 

This is the latest recevied weather packets stored in our database for station/object IW4EGP-3. If no packets are shown the sender has not sent any weather packets the latest 10 day(s).

<< 43 44 45 46 47 48 49 >>
Time Temp. Humidity Pressure Rain* Wind** Luminosity Snow
1787904908 31.11° C 69% 1017.8 hPa 0 mm - - -
1787904076 31.11° C 70% 1018.2 hPa 0 mm - - -
1787904045 31.11° C 70% 1018.2 hPa 0 mm - - -
1787904012 31.11° C 70% 1018.2 hPa 0 mm - - -
1787903348 30° C 75% 1018.1 hPa 0 mm - - -
1787903108 30° C 75% 1018.1 hPa 0 mm - - -
1787902210 28.33° C 79% 1018.2 hPa 0 mm - - -
1787901318 28.33° C 82% 1018.6 hPa 0 mm - - -
1787900503 27.22° C 86% 1018.3 hPa 0 mm - - -
1787900471 27.22° C 86% 1018.3 hPa 0 mm - - -
1787900412 27.22° C 86% 1018.3 hPa 0 mm - - -
1787899545 27.22° C 86% 1018.4 hPa 0 mm - - -
1787899508 27.22° C 86% 1018.4 hPa 0 mm - - -
1787898610 27.22° C 86% 1018.6 hPa 0 mm - - -
1787897744 27.22° C 86% 1018.5 hPa 0 mm - - -
1787897709 27.22° C 86% 1018.5 hPa 0 mm - - -
1787896812 26.67° C 87% 1018.3 hPa 0 mm - - -
1787895909 26.11° C 89% 1017.9 hPa 0 mm - - -
1787895014 25.56° C 90% 1017.9 hPa 0 mm - - -
1787894108 25° C 90% 1017.7 hPa 0 mm - - -
1787893211 25° C 91% 1017.4 hPa 0 mm - - -
1787892316 24.44° C 91% 1017.1 hPa 0 mm - - -
1787891412 24.44° C 90% 1016.8 hPa 0 mm - - -
1787890509 25° C 89% 1016.7 hPa 0 mm - - -
1787889641 25° C 89% 1017.2 hPa 0 mm - - -

* Rain latest hour (hover to see other rain measurements)
** Current wind speed in m/s (hover to see current wind gust speed)